sensor_id;sensor_type;location;lat;lon;timestamp;P1;durP1;ratioP1;P2;durP2;ratioP2
6551;SDS011;3309;48.708;9.290;2023-02-28T00:00:10;1.00;;;1.00;;
6551;SDS011;3309;48.708;9.290;2023-02-28T00:02:37;0.80;;;0.80;;
6551;SDS011;3309;48.708;9.290;2023-02-28T00:05:03;0.90;;;0.90;;
6551;SDS011;3309;48.708;9.290;2023-02-28T00:07:30;0.90;;;0.90;;
6551;SDS011;3309;48.708;9.290;2023-02-28T00:10:02;1.00;;;1.00;;
6551;SDS011;3309;48.708;9.290;2023-02-28T00:12:28;1.00;;;1.00;;
6551;SDS011;3309;48.708;9.290;2023-02-28T00:14:54;0.90;;;0.90;;
6551;SDS011;3309;48.708;9.290;2023-02-28T00:17:20;0.90;;;0.90;;
6551;SDS011;3309;48.708;9.290;2023-02-28T00:19:49;1.00;;;1.00;;
6551;SDS011;3309;48.708;9.290;2023-02-28T00:22:16;0.90;;;0.90;;
6551;SDS011;3309;48.708;9.290;2023-02-28T00:24:42;1.00;;;1.00;;
6551;SDS011;3309;48.708;9.290;2023-02-28T00:27:08;1.03;;;1.03;;
6551;SDS011;3309;48.708;9.290;2023-02-28T00:29:34;0.90;;;0.90;;
6551;SDS011;3309;48.708;9.290;2023-02-28T00:32:01;0.90;;;0.90;;
6551;SDS011;3309;48.708;9.290;2023-02-28T00:34:26;0.90;;;0.90;;
6551;SDS011;3309;48.708;9.290;2023-02-28T00:36:52;1.00;;;1.00;;
6551;SDS011;3309;48.708;9.290;2023-02-28T00:39:19;0.90;;;0.90;;
6551;SDS011;3309;48.708;9.290;2023-02-28T00:41:45;0.90;;;0.90;;
6551;SDS011;3309;48.708;9.290;2023-02-28T00:44:11;1.00;;;1.00;;
6551;SDS011;3309;48.708;9.290;2023-02-28T00:46:37;1.00;;;1.00;;
6551;SDS011;3309;48.708;9.290;2023-02-28T00:49:03;1.00;;;1.00;;
6551;SDS011;3309;48.708;9.290;2023-02-28T00:51:29;1.00;;;1.00;;
6551;SDS011;3309;48.708;9.290;2023-02-28T00:53:55;1.00;;;1.00;;
6551;SDS011;3309;48.708;9.290;2023-02-28T00:56:21;0.93;;;0.93;;
6551;SDS011;3309;48.708;9.290;2023-02-28T00:58:47;1.00;;;1.00;;
6551;SDS011;3309;48.708;9.290;2023-02-28T01:01:13;1.00;;;1.00;;
6551;SDS011;3309;48.708;9.290;2023-02-28T01:03:39;1.00;;;1.00;;
6551;SDS011;3309;48.708;9.290;2023-02-28T01:06:05;1.00;;;1.00;;
6551;SDS011;3309;48.708;9.290;2023-02-28T01:08:31;1.00;;;1.00;;
6551;SDS011;3309;48.708;9.290;2023-02-28T01:10:57;1.00;;;1.00;;
6551;SDS011;3309;48.708;9.290;2023-02-28T01:13:23;1.00;;;1.00;;
6551;SDS011;3309;48.708;9.290;2023-02-28T01:15:51;0.93;;;0.93;;
6551;SDS011;3309;48.708;9.290;2023-02-28T01:18:17;0.90;;;0.90;;
6551;SDS011;3309;48.708;9.290;2023-02-28T01:20:43;0.90;;;0.90;;
6551;SDS011;3309;48.708;9.290;2023-02-28T01:23:11;1.07;;;1.07;;
6551;SDS011;3309;48.708;9.290;2023-02-28T01:25:37;0.90;;;0.90;;
6551;SDS011;3309;48.708;9.290;2023-02-28T01:28:03;0.90;;;0.90;;
6551;SDS011;3309;48.708;9.290;2023-02-28T01:30:29;0.90;;;0.90;;
6551;SDS011;3309;48.708;9.290;2023-02-28T01:32:55;0.93;;;0.93;;
6551;SDS011;3309;48.708;9.290;2023-02-28T01:35:21;0.80;;;0.80;;
6551;SDS011;3309;48.708;9.290;2023-02-28T01:37:47;0.90;;;0.90;;
6551;SDS011;3309;48.708;9.290;2023-02-28T01:40:13;1.00;;;1.00;;
6551;SDS011;3309;48.708;9.290;2023-02-28T01:42:39;0.90;;;0.90;;
6551;SDS011;3309;48.708;9.290;2023-02-28T01:47:43;0.90;;;0.90;;
6551;SDS011;3309;48.708;9.290;2023-02-28T01:50:15;1.00;;;1.00;;
6551;SDS011;3309;48.708;9.290;2023-02-28T01:52:42;0.93;;;0.93;;
6551;SDS011;3309;48.708;9.290;2023-02-28T01:55:09;1.00;;;1.00;;
6551;SDS011;3309;48.708;9.290;2023-02-28T01:57:38;0.90;;;0.90;;
6551;SDS011;3309;48.708;9.290;2023-02-28T02:02:33;0.90;;;0.90;;
6551;SDS011;3309;48.708;9.290;2023-02-28T02:05:03;1.00;;;1.00;;
6551;SDS011;3309;48.708;9.290;2023-02-28T02:07:31;0.90;;;0.90;;
6551;SDS011;3309;48.708;9.290;2023-02-28T02:10:02;0.90;;;0.90;;
6551;SDS011;3309;48.708;9.290;2023-02-28T02:13:13;1.00;;;1.00;;
6551;SDS011;3309;48.708;9.290;2023-02-28T02:15:25;0.90;;;0.90;;
6551;SDS011;3309;48.708;9.290;2023-02-28T02:17:54;0.97;;;0.97;;
6551;SDS011;3309;48.708;9.290;2023-02-28T02:25:25;1.00;;;1.00;;
6551;SDS011;3309;48.708;9.290;2023-02-28T02:33:04;1.10;;;1.10;;
6551;SDS011;3309;48.708;9.290;2023-02-28T02:35:34;0.90;;;0.90;;
6551;SDS011;3309;48.708;9.290;2023-02-28T02:38:13;0.90;;;0.90;;
6551;SDS011;3309;48.708;9.290;2023-02-28T02:40:57;0.80;;;0.80;;
6551;SDS011;3309;48.708;9.290;2023-02-28T02:43:35;0.90;;;0.90;;
6551;SDS011;3309;48.708;9.290;2023-02-28T02:46:04;0.90;;;0.90;;
6551;SDS011;3309;48.708;9.290;2023-02-28T02:48:32;1.00;;;1.00;;
6551;SDS011;3309;48.708;9.290;2023-02-28T02:51:00;0.90;;;0.90;;
6551;SDS011;3309;48.708;9.290;2023-02-28T02:53:32;1.00;;;1.00;;
6551;SDS011;3309;48.708;9.290;2023-02-28T02:55:59;1.00;;;1.00;;
6551;SDS011;3309;48.708;9.290;2023-02-28T02:58:27;1.00;;;1.00;;
6551;SDS011;3309;48.708;9.290;2023-02-28T03:00:56;1.00;;;1.00;;
6551;SDS011;3309;48.708;9.290;2023-02-28T03:03:23;0.90;;;0.90;;
6551;SDS011;3309;48.708;9.290;2023-02-28T03:05:54;0.90;;;0.90;;
6551;SDS011;3309;48.708;9.290;2023-02-28T03:08:20;0.90;;;0.90;;
6551;SDS011;3309;48.708;9.290;2023-02-28T03:10:48;1.10;;;1.10;;
6551;SDS011;3309;48.708;9.290;2023-02-28T03:24:07;1.10;;;1.10;;
6551;SDS011;3309;48.708;9.290;2023-02-28T03:26:34;1.00;;;1.00;;
6551;SDS011;3309;48.708;9.290;2023-02-28T03:29:03;1.00;;;1.00;;
6551;SDS011;3309;48.708;9.290;2023-02-28T03:31:32;0.90;;;0.90;;
6551;SDS011;3309;48.708;9.290;2023-02-28T03:34:12;1.00;;;1.00;;
6551;SDS011;3309;48.708;9.290;2023-02-28T03:36:41;1.00;;;1.00;;
6551;SDS011;3309;48.708;9.290;2023-02-28T03:39:14;1.10;;;1.10;;
6551;SDS011;3309;48.708;9.290;2023-02-28T03:41:42;0.93;;;0.93;;
6551;SDS011;3309;48.708;9.290;2023-02-28T03:44:14;0.90;;;0.90;;
6551;SDS011;3309;48.708;9.290;2023-02-28T03:46:52;1.03;;;1.03;;
6551;SDS011;3309;48.708;9.290;2023-02-28T03:49:30;0.90;;;0.90;;
6551;SDS011;3309;48.708;9.290;2023-02-28T03:51:58;0.90;;;0.90;;
6551;SDS011;3309;48.708;9.290;2023-02-28T03:54:27;0.97;;;0.97;;
6551;SDS011;3309;48.708;9.290;2023-02-28T03:56:59;1.00;;;1.00;;
6551;SDS011;3309;48.708;9.290;2023-02-28T03:59:30;1.10;;;1.10;;
6551;SDS011;3309;48.708;9.290;2023-02-28T04:01:58;1.00;;;1.00;;
6551;SDS011;3309;48.708;9.290;2023-02-28T04:04:24;1.00;;;1.00;;
6551;SDS011;3309;48.708;9.290;2023-02-28T04:06:52;1.00;;;1.00;;
6551;SDS011;3309;48.708;9.290;2023-02-28T04:09:26;0.90;;;0.90;;
6551;SDS011;3309;48.708;9.290;2023-02-28T04:11:53;1.00;;;1.00;;
6551;SDS011;3309;48.708;9.290;2023-02-28T04:14:22;1.00;;;1.00;;
6551;SDS011;3309;48.708;9.290;2023-02-28T04:16:49;1.00;;;1.00;;
6551;SDS011;3309;48.708;9.290;2023-02-28T04:19:16;0.90;;;0.90;;
6551;SDS011;3309;48.708;9.290;2023-02-28T04:21:52;0.93;;;0.93;;
6551;SDS011;3309;48.708;9.290;2023-02-28T04:24:19;0.90;;;0.90;;
6551;SDS011;3309;48.708;9.290;2023-02-28T04:26:46;1.00;;;1.00;;
6551;SDS011;3309;48.708;9.290;2023-02-28T04:29:13;1.00;;;1.00;;
6551;SDS011;3309;48.708;9.290;2023-02-28T04:31:39;0.93;;;0.93;;
6551;SDS011;3309;48.708;9.290;2023-02-28T04:34:06;0.90;;;0.90;;
6551;SDS011;3309;48.708;9.290;2023-02-28T04:36:32;1.00;;;1.00;;
6551;SDS011;3309;48.708;9.290;2023-02-28T04:38:58;0.90;;;0.90;;
6551;SDS011;3309;48.708;9.290;2023-02-28T04:41:24;1.00;;;1.00;;
6551;SDS011;3309;48.708;9.290;2023-02-28T04:43:51;0.97;;;0.97;;
6551;SDS011;3309;48.708;9.290;2023-02-28T04:46:17;0.90;;;0.90;;
6551;SDS011;3309;48.708;9.290;2023-02-28T04:48:43;1.10;;;1.10;;
6551;SDS011;3309;48.708;9.290;2023-02-28T04:51:11;0.90;;;0.90;;
6551;SDS011;3309;48.708;9.290;2023-02-28T04:53:38;1.00;;;1.00;;
6551;SDS011;3309;48.708;9.290;2023-02-28T04:56:05;0.90;;;0.90;;
6551;SDS011;3309;48.708;9.290;2023-02-28T04:58:32;1.00;;;1.00;;
6551;SDS011;3309;48.708;9.290;2023-02-28T05:01:01;0.90;;;0.90;;
6551;SDS011;3309;48.708;9.290;2023-02-28T05:03:27;0.90;;;0.90;;
6551;SDS011;3309;48.708;9.290;2023-02-28T05:05:53;1.00;;;1.00;;
6551;SDS011;3309;48.708;9.290;2023-02-28T05:08:19;1.00;;;1.00;;
6551;SDS011;3309;48.708;9.290;2023-02-28T05:10:45;1.00;;;1.00;;
6551;SDS011;3309;48.708;9.290;2023-02-28T05:13:12;1.00;;;1.00;;
6551;SDS011;3309;48.708;9.290;2023-02-28T05:15:38;0.90;;;0.90;;
6551;SDS011;3309;48.708;9.290;2023-02-28T05:18:04;1.00;;;1.00;;
6551;SDS011;3309;48.708;9.290;2023-02-28T05:20:30;0.90;;;0.90;;
6551;SDS011;3309;48.708;9.290;2023-02-28T05:22:56;1.00;;;1.00;;
6551;SDS011;3309;48.708;9.290;2023-02-28T05:25:23;1.00;;;1.00;;
6551;SDS011;3309;48.708;9.290;2023-02-28T05:27:49;1.03;;;1.03;;
6551;SDS011;3309;48.708;9.290;2023-02-28T05:30:15;0.90;;;0.90;;
6551;SDS011;3309;48.708;9.290;2023-02-28T05:32:42;1.00;;;1.00;;
6551;SDS011;3309;48.708;9.290;2023-02-28T05:35:08;1.00;;;1.00;;
6551;SDS011;3309;48.708;9.290;2023-02-28T05:37:34;1.00;;;1.00;;
6551;SDS011;3309;48.708;9.290;2023-02-28T05:40:01;1.00;;;1.00;;
6551;SDS011;3309;48.708;9.290;2023-02-28T05:42:30;0.90;;;0.90;;
6551;SDS011;3309;48.708;9.290;2023-02-28T05:44:56;1.00;;;1.00;;
6551;SDS011;3309;48.708;9.290;2023-02-28T05:47:22;0.90;;;0.90;;
6551;SDS011;3309;48.708;9.290;2023-02-28T05:49:49;1.00;;;1.00;;
6551;SDS011;3309;48.708;9.290;2023-02-28T05:52:15;0.90;;;0.90;;
6551;SDS011;3309;48.708;9.290;2023-02-28T05:54:41;1.00;;;1.00;;
6551;SDS011;3309;48.708;9.290;2023-02-28T05:57:07;0.90;;;0.90;;
6551;SDS011;3309;48.708;9.290;2023-02-28T05:59:33;0.93;;;0.93;;
6551;SDS011;3309;48.708;9.290;2023-02-28T06:01:59;1.00;;;1.00;;
6551;SDS011;3309;48.708;9.290;2023-02-28T06:04:25;1.03;;;1.03;;
6551;SDS011;3309;48.708;9.290;2023-02-28T06:06:51;1.00;;;1.00;;
6551;SDS011;3309;48.708;9.290;2023-02-28T06:09:17;0.90;;;0.90;;
6551;SDS011;3309;48.708;9.290;2023-02-28T06:11:44;0.90;;;0.90;;
6551;SDS011;3309;48.708;9.290;2023-02-28T06:14:19;0.90;;;0.90;;
6551;SDS011;3309;48.708;9.290;2023-02-28T06:16:45;1.00;;;1.00;;
6551;SDS011;3309;48.708;9.290;2023-02-28T06:19:12;0.90;;;0.90;;
6551;SDS011;3309;48.708;9.290;2023-02-28T06:21:38;0.90;;;0.90;;
6551;SDS011;3309;48.708;9.290;2023-02-28T06:24:04;0.90;;;0.90;;
6551;SDS011;3309;48.708;9.290;2023-02-28T06:26:30;1.00;;;1.00;;
6551;SDS011;3309;48.708;9.290;2023-02-28T06:28:56;1.00;;;1.00;;
6551;SDS011;3309;48.708;9.290;2023-02-28T06:31:22;0.90;;;0.90;;
6551;SDS011;3309;48.708;9.290;2023-02-28T06:33:50;1.00;;;1.00;;
6551;SDS011;3309;48.708;9.290;2023-02-28T06:36:16;0.97;;;0.97;;
6551;SDS011;3309;48.708;9.290;2023-02-28T06:38:43;1.00;;;1.00;;
6551;SDS011;3309;48.708;9.290;2023-02-28T06:41:09;1.00;;;1.00;;
6551;SDS011;3309;48.708;9.290;2023-02-28T06:43:38;0.90;;;0.90;;
6551;SDS011;3309;48.708;9.290;2023-02-28T06:46:05;0.90;;;0.90;;
6551;SDS011;3309;48.708;9.290;2023-02-28T06:48:31;0.90;;;0.90;;
6551;SDS011;3309;48.708;9.290;2023-02-28T06:51:04;0.90;;;0.90;;
6551;SDS011;3309;48.708;9.290;2023-02-28T06:53:30;0.80;;;0.80;;
6551;SDS011;3309;48.708;9.290;2023-02-28T06:55:56;1.00;;;1.00;;
6551;SDS011;3309;48.708;9.290;2023-02-28T06:58:22;1.00;;;1.00;;
6551;SDS011;3309;48.708;9.290;2023-02-28T07:00:50;0.90;;;0.90;;
6551;SDS011;3309;48.708;9.290;2023-02-28T07:03:17;0.80;;;0.80;;
6551;SDS011;3309;48.708;9.290;2023-02-28T07:05:43;0.97;;;0.97;;
6551;SDS011;3309;48.708;9.290;2023-02-28T07:08:10;1.00;;;1.00;;
6551;SDS011;3309;48.708;9.290;2023-02-28T07:10:39;0.87;;;0.87;;
6551;SDS011;3309;48.708;9.290;2023-02-28T07:13:05;1.00;;;1.00;;
6551;SDS011;3309;48.708;9.290;2023-02-28T07:15:31;1.00;;;1.00;;
6551;SDS011;3309;48.708;9.290;2023-02-28T07:17:57;0.90;;;0.90;;
6551;SDS011;3309;48.708;9.290;2023-02-28T07:20:24;0.90;;;0.90;;
6551;SDS011;3309;48.708;9.290;2023-02-28T07:22:50;0.90;;;0.90;;
6551;SDS011;3309;48.708;9.290;2023-02-28T07:25:24;1.10;;;1.10;;
6551;SDS011;3309;48.708;9.290;2023-02-28T07:27:50;1.10;;;1.10;;
6551;SDS011;3309;48.708;9.290;2023-02-28T07:30:17;0.90;;;0.90;;
6551;SDS011;3309;48.708;9.290;2023-02-28T07:32:43;1.00;;;1.00;;
6551;SDS011;3309;48.708;9.290;2023-02-28T07:35:09;1.00;;;1.00;;
6551;SDS011;3309;48.708;9.290;2023-02-28T07:37:35;0.90;;;0.90;;
6551;SDS011;3309;48.708;9.290;2023-02-28T07:40:05;0.90;;;0.90;;
6551;SDS011;3309;48.708;9.290;2023-02-28T07:42:36;1.00;;;1.00;;
6551;SDS011;3309;48.708;9.290;2023-02-28T07:45:03;0.90;;;0.90;;
6551;SDS011;3309;48.708;9.290;2023-02-28T07:47:29;1.00;;;1.00;;
6551;SDS011;3309;48.708;9.290;2023-02-28T07:49:55;1.10;;;1.10;;
6551;SDS011;3309;48.708;9.290;2023-02-28T07:52:21;1.00;;;1.00;;
6551;SDS011;3309;48.708;9.290;2023-02-28T07:54:48;0.97;;;0.97;;
6551;SDS011;3309;48.708;9.290;2023-02-28T07:57:14;0.90;;;0.90;;
6551;SDS011;3309;48.708;9.290;2023-02-28T07:59:40;0.97;;;0.97;;
6551;SDS011;3309;48.708;9.290;2023-02-28T08:02:08;1.00;;;1.00;;
6551;SDS011;3309;48.708;9.290;2023-02-28T08:04:35;1.00;;;1.00;;
6551;SDS011;3309;48.708;9.290;2023-02-28T08:07:01;1.00;;;1.00;;
6551;SDS011;3309;48.708;9.290;2023-02-28T08:09:27;0.93;;;0.93;;
6551;SDS011;3309;48.708;9.290;2023-02-28T08:11:54;0.90;;;0.90;;
6551;SDS011;3309;48.708;9.290;2023-02-28T08:14:20;0.90;;;0.90;;
6551;SDS011;3309;48.708;9.290;2023-02-28T08:16:47;0.90;;;0.90;;
6551;SDS011;3309;48.708;9.290;2023-02-28T08:19:13;0.80;;;0.80;;
6551;SDS011;3309;48.708;9.290;2023-02-28T08:21:39;0.90;;;0.90;;
6551;SDS011;3309;48.708;9.290;2023-02-28T08:24:05;0.80;;;0.80;;
6551;SDS011;3309;48.708;9.290;2023-02-28T08:26:31;0.90;;;0.90;;
6551;SDS011;3309;48.708;9.290;2023-02-28T08:28:57;0.90;;;0.90;;
6551;SDS011;3309;48.708;9.290;2023-02-28T08:31:23;1.00;;;1.00;;
6551;SDS011;3309;48.708;9.290;2023-02-28T08:33:49;0.93;;;0.93;;
6551;SDS011;3309;48.708;9.290;2023-02-28T08:36:17;0.90;;;0.90;;
6551;SDS011;3309;48.708;9.290;2023-02-28T08:38:43;0.93;;;0.93;;
6551;SDS011;3309;48.708;9.290;2023-02-28T08:41:11;0.90;;;0.90;;
6551;SDS011;3309;48.708;9.290;2023-02-28T08:43:38;0.90;;;0.90;;
6551;SDS011;3309;48.708;9.290;2023-02-28T08:46:04;0.90;;;0.90;;
6551;SDS011;3309;48.708;9.290;2023-02-28T08:48:31;0.90;;;0.90;;
6551;SDS011;3309;48.708;9.290;2023-02-28T08:51:01;0.90;;;0.90;;
6551;SDS011;3309;48.708;9.290;2023-02-28T08:53:28;0.90;;;0.90;;
6551;SDS011;3309;48.708;9.290;2023-02-28T08:55:58;0.90;;;0.90;;
6551;SDS011;3309;48.708;9.290;2023-02-28T08:58:24;0.90;;;0.90;;
6551;SDS011;3309;48.708;9.290;2023-02-28T09:00:50;0.90;;;0.90;;
6551;SDS011;3309;48.708;9.290;2023-02-28T09:03:16;0.90;;;0.90;;
6551;SDS011;3309;48.708;9.290;2023-02-28T09:05:59;0.90;;;0.90;;
6551;SDS011;3309;48.708;9.290;2023-02-28T09:08:26;0.90;;;0.90;;
6551;SDS011;3309;48.708;9.290;2023-02-28T09:10:52;0.90;;;0.90;;
6551;SDS011;3309;48.708;9.290;2023-02-28T09:13:19;0.90;;;0.90;;
6551;SDS011;3309;48.708;9.290;2023-02-28T09:15:45;1.00;;;1.00;;
6551;SDS011;3309;48.708;9.290;2023-02-28T09:18:12;1.00;;;1.00;;
6551;SDS011;3309;48.708;9.290;2023-02-28T09:20:38;0.90;;;0.90;;
6551;SDS011;3309;48.708;9.290;2023-02-28T09:23:05;0.80;;;0.80;;
6551;SDS011;3309;48.708;9.290;2023-02-28T09:25:31;0.80;;;0.80;;
6551;SDS011;3309;48.708;9.290;2023-02-28T09:27:57;1.00;;;1.00;;
6551;SDS011;3309;48.708;9.290;2023-02-28T09:30:23;0.83;;;0.83;;
6551;SDS011;3309;48.708;9.290;2023-02-28T09:32:49;0.80;;;0.80;;
6551;SDS011;3309;48.708;9.290;2023-02-28T09:35:19;1.00;;;1.00;;
6551;SDS011;3309;48.708;9.290;2023-02-28T09:37:46;0.93;;;0.93;;
6551;SDS011;3309;48.708;9.290;2023-02-28T09:40:12;0.90;;;0.90;;
6551;SDS011;3309;48.708;9.290;2023-02-28T09:42:39;0.90;;;0.90;;
6551;SDS011;3309;48.708;9.290;2023-02-28T09:45:28;0.87;;;0.87;;
6551;SDS011;3309;48.708;9.290;2023-02-28T09:47:53;0.90;;;0.90;;
6551;SDS011;3309;48.708;9.290;2023-02-28T09:52:52;0.90;;;0.90;;
6551;SDS011;3309;48.708;9.290;2023-02-28T09:55:20;0.90;;;0.90;;
6551;SDS011;3309;48.708;9.290;2023-02-28T09:57:47;0.90;;;0.90;;
6551;SDS011;3309;48.708;9.290;2023-02-28T10:05:11;0.90;;;0.90;;
6551;SDS011;3309;48.708;9.290;2023-02-28T10:07:50;0.80;;;0.80;;
6551;SDS011;3309;48.708;9.290;2023-02-28T10:12:51;0.90;;;0.90;;
6551;SDS011;3309;48.708;9.290;2023-02-28T10:15:18;0.90;;;0.90;;
6551;SDS011;3309;48.708;9.290;2023-02-28T10:17:46;1.00;;;1.00;;
6551;SDS011;3309;48.708;9.290;2023-02-28T10:20:14;1.00;;;1.00;;
6551;SDS011;3309;48.708;9.290;2023-02-28T10:25:33;0.90;;;0.90;;
6551;SDS011;3309;48.708;9.290;2023-02-28T10:28:12;0.90;;;0.90;;
6551;SDS011;3309;48.708;9.290;2023-02-28T10:30:49;0.90;;;0.90;;
6551;SDS011;3309;48.708;9.290;2023-02-28T10:33:17;0.90;;;0.90;;
6551;SDS011;3309;48.708;9.290;2023-02-28T10:35:45;0.90;;;0.90;;
6551;SDS011;3309;48.708;9.290;2023-02-28T10:38:15;0.90;;;0.90;;
6551;SDS011;3309;48.708;9.290;2023-02-28T10:40:41;0.90;;;0.90;;
6551;SDS011;3309;48.708;9.290;2023-02-28T10:43:17;1.00;;;1.00;;
6551;SDS011;3309;48.708;9.290;2023-02-28T10:45:55;1.00;;;1.00;;
6551;SDS011;3309;48.708;9.290;2023-02-28T10:55:58;0.90;;;0.90;;
6551;SDS011;3309;48.708;9.290;2023-02-28T10:58:27;0.90;;;0.90;;
6551;SDS011;3309;48.708;9.290;2023-02-28T11:00:53;0.80;;;0.80;;
6551;SDS011;3309;48.708;9.290;2023-02-28T11:03:24;0.90;;;0.90;;
6551;SDS011;3309;48.708;9.290;2023-02-28T11:05:50;0.80;;;0.80;;
6551;SDS011;3309;48.708;9.290;2023-02-28T11:08:17;0.80;;;0.80;;
6551;SDS011;3309;48.708;9.290;2023-02-28T11:10:47;0.80;;;0.80;;
6551;SDS011;3309;48.708;9.290;2023-02-28T11:13:17;0.63;;;0.63;;
6551;SDS011;3309;48.708;9.290;2023-02-28T11:15:45;0.70;;;0.70;;
6551;SDS011;3309;48.708;9.290;2023-02-28T11:18:19;0.70;;;0.70;;
6551;SDS011;3309;48.708;9.290;2023-02-28T11:20:48;0.60;;;0.60;;
6551;SDS011;3309;48.708;9.290;2023-02-28T11:23:15;0.80;;;0.80;;
6551;SDS011;3309;48.708;9.290;2023-02-28T11:25:46;0.80;;;0.80;;
6551;SDS011;3309;48.708;9.290;2023-02-28T11:28:24;0.73;;;0.73;;
6551;SDS011;3309;48.708;9.290;2023-02-28T11:31:04;0.80;;;0.80;;
6551;SDS011;3309;48.708;9.290;2023-02-28T11:33:40;0.70;;;0.70;;
6551;SDS011;3309;48.708;9.290;2023-02-28T11:36:11;0.80;;;0.80;;
6551;SDS011;3309;48.708;9.290;2023-02-28T11:38:39;0.80;;;0.80;;
6551;SDS011;3309;48.708;9.290;2023-02-28T11:41:24;0.70;;;0.70;;
6551;SDS011;3309;48.708;9.290;2023-02-28T11:46:24;0.67;;;0.67;;
6551;SDS011;3309;48.708;9.290;2023-02-28T11:51:27;0.67;;;0.67;;
6551;SDS011;3309;48.708;9.290;2023-02-28T11:54:16;0.70;;;0.70;;
6551;SDS011;3309;48.708;9.290;2023-02-28T11:56:47;0.60;;;0.60;;
6551;SDS011;3309;48.708;9.290;2023-02-28T12:01:47;0.60;;;0.60;;
6551;SDS011;3309;48.708;9.290;2023-02-28T12:07:09;0.60;;;0.60;;
6551;SDS011;3309;48.708;9.290;2023-02-28T12:12:29;0.67;;;0.67;;
6551;SDS011;3309;48.708;9.290;2023-02-28T12:27:47;0.57;;;0.57;;
6551;SDS011;3309;48.708;9.290;2023-02-28T12:32:44;0.70;;;0.70;;
6551;SDS011;3309;48.708;9.290;2023-02-28T12:35:11;0.70;;;0.70;;
6551;SDS011;3309;48.708;9.290;2023-02-28T12:37:39;0.60;;;0.60;;
6551;SDS011;3309;48.708;9.290;2023-02-28T12:40:12;0.70;;;0.70;;
6551;SDS011;3309;48.708;9.290;2023-02-28T12:42:42;0.70;;;0.70;;
6551;SDS011;3309;48.708;9.290;2023-02-28T12:45:21;0.77;;;0.77;;
6551;SDS011;3309;48.708;9.290;2023-02-28T12:47:50;0.77;;;0.77;;
6551;SDS011;3309;48.708;9.290;2023-02-28T12:50:16;0.80;;;0.80;;
6551;SDS011;3309;48.708;9.290;2023-02-28T12:52:56;0.80;;;0.80;;
6551;SDS011;3309;48.708;9.290;2023-02-28T13:11:24;0.77;;;0.77;;
6551;SDS011;3309;48.708;9.290;2023-02-28T13:13:56;0.60;;;0.60;;
6551;SDS011;3309;48.708;9.290;2023-02-28T13:16:22;0.60;;;0.60;;
6551;SDS011;3309;48.708;9.290;2023-02-28T13:18:48;0.60;;;0.60;;
6551;SDS011;3309;48.708;9.290;2023-02-28T13:21:28;0.70;;;0.70;;
6551;SDS011;3309;48.708;9.290;2023-02-28T13:28:58;0.70;;;0.70;;
6551;SDS011;3309;48.708;9.290;2023-02-28T13:31:24;0.70;;;0.70;;
6551;SDS011;3309;48.708;9.290;2023-02-28T13:38:46;0.60;;;0.60;;
6551;SDS011;3309;48.708;9.290;2023-02-28T13:44:01;0.63;;;0.63;;
6551;SDS011;3309;48.708;9.290;2023-02-28T13:46:28;0.60;;;0.60;;
6551;SDS011;3309;48.708;9.290;2023-02-28T13:48:54;0.60;;;0.60;;
6551;SDS011;3309;48.708;9.290;2023-02-28T13:51:38;0.70;;;0.70;;
6551;SDS011;3309;48.708;9.290;2023-02-28T13:56:43;0.60;;;0.60;;
6551;SDS011;3309;48.708;9.290;2023-02-28T13:59:20;0.80;;;0.80;;
6551;SDS011;3309;48.708;9.290;2023-02-28T14:01:54;0.70;;;0.70;;
6551;SDS011;3309;48.708;9.290;2023-02-28T14:07:06;0.70;;;0.70;;
6551;SDS011;3309;48.708;9.290;2023-02-28T14:09:37;0.80;;;0.80;;
6551;SDS011;3309;48.708;9.290;2023-02-28T14:17:16;0.60;;;0.60;;
6551;SDS011;3309;48.708;9.290;2023-02-28T14:19:46;0.70;;;0.70;;
6551;SDS011;3309;48.708;9.290;2023-02-28T14:35:57;0.77;;;0.77;;
6551;SDS011;3309;48.708;9.290;2023-02-28T14:38:27;0.80;;;0.80;;
6551;SDS011;3309;48.708;9.290;2023-02-28T14:40:54;0.63;;;0.63;;
6551;SDS011;3309;48.708;9.290;2023-02-28T14:43:22;0.70;;;0.70;;
6551;SDS011;3309;48.708;9.290;2023-02-28T14:45:52;0.70;;;0.70;;
6551;SDS011;3309;48.708;9.290;2023-02-28T14:48:19;0.80;;;0.80;;
6551;SDS011;3309;48.708;9.290;2023-02-28T14:50:49;0.73;;;0.73;;
6551;SDS011;3309;48.708;9.290;2023-02-28T14:53:18;0.80;;;0.80;;
6551;SDS011;3309;48.708;9.290;2023-02-28T14:55:45;0.70;;;0.70;;
6551;SDS011;3309;48.708;9.290;2023-02-28T14:58:28;0.70;;;0.70;;
6551;SDS011;3309;48.708;9.290;2023-02-28T15:00:55;0.67;;;0.67;;
6551;SDS011;3309;48.708;9.290;2023-02-28T15:05:51;0.70;;;0.70;;
6551;SDS011;3309;48.708;9.290;2023-02-28T15:08:18;0.70;;;0.70;;
6551;SDS011;3309;48.708;9.290;2023-02-28T15:13:23;0.70;;;0.70;;
6551;SDS011;3309;48.708;9.290;2023-02-28T15:20:44;0.70;;;0.70;;
6551;SDS011;3309;48.708;9.290;2023-02-28T15:23:11;0.70;;;0.70;;
6551;SDS011;3309;48.708;9.290;2023-02-28T15:25:37;0.70;;;0.70;;
6551;SDS011;3309;48.708;9.290;2023-02-28T15:28:03;0.80;;;0.80;;
6551;SDS011;3309;48.708;9.290;2023-02-28T15:30:30;0.70;;;0.70;;
6551;SDS011;3309;48.708;9.290;2023-02-28T15:35:41;0.80;;;0.80;;
6551;SDS011;3309;48.708;9.290;2023-02-28T15:40:51;0.90;;;0.90;;
6551;SDS011;3309;48.708;9.290;2023-02-28T15:43:28;0.80;;;0.80;;
6551;SDS011;3309;48.708;9.290;2023-02-28T15:45:58;0.80;;;0.80;;
6551;SDS011;3309;48.708;9.290;2023-02-28T15:48:58;0.80;;;0.80;;
6551;SDS011;3309;48.708;9.290;2023-02-28T15:51:18;0.87;;;0.87;;
6551;SDS011;3309;48.708;9.290;2023-02-28T15:56:17;0.80;;;0.80;;
6551;SDS011;3309;48.708;9.290;2023-02-28T15:58:46;0.80;;;0.80;;
6551;SDS011;3309;48.708;9.290;2023-02-28T16:01:19;0.80;;;0.80;;
6551;SDS011;3309;48.708;9.290;2023-02-28T16:03:48;0.80;;;0.80;;
6551;SDS011;3309;48.708;9.290;2023-02-28T16:08:59;0.70;;;0.70;;
6551;SDS011;3309;48.708;9.290;2023-02-28T16:11:25;0.70;;;0.70;;
6551;SDS011;3309;48.708;9.290;2023-02-28T16:13:51;0.77;;;0.77;;
6551;SDS011;3309;48.708;9.290;2023-02-28T16:16:21;0.80;;;0.80;;
6551;SDS011;3309;48.708;9.290;2023-02-28T16:18:49;0.83;;;0.83;;
6551;SDS011;3309;48.708;9.290;2023-02-28T16:21:15;0.80;;;0.80;;
6551;SDS011;3309;48.708;9.290;2023-02-28T16:23:41;0.80;;;0.80;;
6551;SDS011;3309;48.708;9.290;2023-02-28T16:26:07;0.80;;;0.80;;
6551;SDS011;3309;48.708;9.290;2023-02-28T16:28:34;0.80;;;0.80;;
6551;SDS011;3309;48.708;9.290;2023-02-28T16:31:01;0.80;;;0.80;;
6551;SDS011;3309;48.708;9.290;2023-02-28T16:33:28;0.80;;;0.80;;
6551;SDS011;3309;48.708;9.290;2023-02-28T16:35:54;0.83;;;0.83;;
6551;SDS011;3309;48.708;9.290;2023-02-28T16:38:20;0.80;;;0.80;;
6551;SDS011;3309;48.708;9.290;2023-02-28T16:40:48;0.97;;;0.97;;
6551;SDS011;3309;48.708;9.290;2023-02-28T16:43:15;0.80;;;0.80;;
6551;SDS011;3309;48.708;9.290;2023-02-28T16:45:43;0.83;;;0.83;;
6551;SDS011;3309;48.708;9.290;2023-02-28T16:48:13;0.80;;;0.80;;
6551;SDS011;3309;48.708;9.290;2023-02-28T16:50:39;0.90;;;0.90;;
6551;SDS011;3309;48.708;9.290;2023-02-28T16:53:05;0.90;;;0.90;;
6551;SDS011;3309;48.708;9.290;2023-02-28T16:55:31;0.83;;;0.83;;
6551;SDS011;3309;48.708;9.290;2023-02-28T16:57:58;0.80;;;0.80;;
6551;SDS011;3309;48.708;9.290;2023-02-28T17:00:25;0.90;;;0.90;;
6551;SDS011;3309;48.708;9.290;2023-02-28T17:02:51;0.80;;;0.80;;
6551;SDS011;3309;48.708;9.290;2023-02-28T17:05:17;0.90;;;0.90;;
6551;SDS011;3309;48.708;9.290;2023-02-28T17:07:44;0.90;;;0.90;;
6551;SDS011;3309;48.708;9.290;2023-02-28T17:10:14;0.80;;;0.80;;
6551;SDS011;3309;48.708;9.290;2023-02-28T17:12:41;0.90;;;0.90;;
6551;SDS011;3309;48.708;9.290;2023-02-28T17:15:08;0.93;;;0.93;;
6551;SDS011;3309;48.708;9.290;2023-02-28T17:17:34;0.80;;;0.80;;
6551;SDS011;3309;48.708;9.290;2023-02-28T17:20:00;0.90;;;0.90;;
6551;SDS011;3309;48.708;9.290;2023-02-28T17:22:26;1.00;;;1.00;;
6551;SDS011;3309;48.708;9.290;2023-02-28T17:24:52;1.00;;;1.00;;
6551;SDS011;3309;48.708;9.290;2023-02-28T17:27:22;0.80;;;0.80;;
6551;SDS011;3309;48.708;9.290;2023-02-28T17:29:48;0.90;;;0.90;;
6551;SDS011;3309;48.708;9.290;2023-02-28T17:32:14;0.90;;;0.90;;
6551;SDS011;3309;48.708;9.290;2023-02-28T17:34:40;1.00;;;1.00;;
6551;SDS011;3309;48.708;9.290;2023-02-28T17:37:07;0.97;;;0.97;;
6551;SDS011;3309;48.708;9.290;2023-02-28T17:39:34;0.90;;;0.90;;
6551;SDS011;3309;48.708;9.290;2023-02-28T17:42:00;0.90;;;0.90;;
6551;SDS011;3309;48.708;9.290;2023-02-28T17:44:26;0.90;;;0.90;;
6551;SDS011;3309;48.708;9.290;2023-02-28T17:46:53;0.90;;;0.90;;
6551;SDS011;3309;48.708;9.290;2023-02-28T17:49:19;0.90;;;0.90;;